sensor_id;sensor_type;location;lat;lon;timestamp;P1;durP1;ratioP1;P2;durP2;ratioP2
25667;SDS011;18003;-33.830;151.202;2022-09-20T00:00:29;4.58;;;2.55;;
25667;SDS011;18003;-33.830;151.202;2022-09-20T00:03:00;3.55;;;2.20;;
25667;SDS011;18003;-33.830;151.202;2022-09-20T00:05:32;2.20;;;1.80;;
25667;SDS011;18003;-33.830;151.202;2022-09-20T00:08:02;3.47;;;2.25;;
25667;SDS011;18003;-33.830;151.202;2022-09-20T00:10:33;4.28;;;2.12;;
25667;SDS011;18003;-33.830;151.202;2022-09-20T00:13:05;5.20;;;2.02;;
25667;SDS011;18003;-33.830;151.202;2022-09-20T00:18:09;3.17;;;1.80;;
25667;SDS011;18003;-33.830;151.202;2022-09-20T00:20:46;4.33;;;1.85;;
25667;SDS011;18003;-33.830;151.202;2022-09-20T00:23:17;4.17;;;1.60;;
25667;SDS011;18003;-33.830;151.202;2022-09-20T00:25:57;6.42;;;1.62;;
25667;SDS011;18003;-33.830;151.202;2022-09-20T00:28:25;5.37;;;1.40;;
25667;SDS011;18003;-33.830;151.202;2022-09-20T00:30:56;4.42;;;1.90;;
25667;SDS011;18003;-33.830;151.202;2022-09-20T00:33:26;5.22;;;1.70;;
25667;SDS011;18003;-33.830;151.202;2022-09-20T00:35:57;4.78;;;2.00;;
25667;SDS011;18003;-33.830;151.202;2022-09-20T00:38:27;4.97;;;1.75;;
25667;SDS011;18003;-33.830;151.202;2022-09-20T00:40:57;4.03;;;1.80;;
25667;SDS011;18003;-33.830;151.202;2022-09-20T00:43:35;2.75;;;1.60;;
25667;SDS011;18003;-33.830;151.202;2022-09-20T00:46:05;3.58;;;1.52;;
25667;SDS011;18003;-33.830;151.202;2022-09-20T00:48:40;5.45;;;1.92;;
25667;SDS011;18003;-33.830;151.202;2022-09-20T00:51:12;3.40;;;1.77;;
25667;SDS011;18003;-33.830;151.202;2022-09-20T00:53:48;4.40;;;1.70;;
25667;SDS011;18003;-33.830;151.202;2022-09-20T00:56:25;4.83;;;1.70;;
25667;SDS011;18003;-33.830;151.202;2022-09-20T00:59:01;4.95;;;1.70;;
25667;SDS011;18003;-33.830;151.202;2022-09-20T01:01:47;3.33;;;1.77;;
25667;SDS011;18003;-33.830;151.202;2022-09-20T01:04:18;4.55;;;1.40;;
25667;SDS011;18003;-33.830;151.202;2022-09-20T01:06:50;6.42;;;1.77;;
25667;SDS011;18003;-33.830;151.202;2022-09-20T01:09:21;3.75;;;1.60;;
25667;SDS011;18003;-33.830;151.202;2022-09-20T01:11:52;4.42;;;2.20;;
25667;SDS011;18003;-33.830;151.202;2022-09-20T01:16:53;4.75;;;2.00;;
25667;SDS011;18003;-33.830;151.202;2022-09-20T01:19:32;3.83;;;1.98;;
25667;SDS011;18003;-33.830;151.202;2022-09-20T01:30:17;6.50;;;1.80;;
25667;SDS011;18003;-33.830;151.202;2022-09-20T01:33:08;4.83;;;1.92;;
25667;SDS011;18003;-33.830;151.202;2022-09-20T01:35:38;3.20;;;1.55;;
25667;SDS011;18003;-33.830;151.202;2022-09-20T01:40:55;3.35;;;1.82;;
25667;SDS011;18003;-33.830;151.202;2022-09-20T01:43:30;5.95;;;1.95;;
25667;SDS011;18003;-33.830;151.202;2022-09-20T01:46:37;7.20;;;2.05;;
25667;SDS011;18003;-33.830;151.202;2022-09-20T01:48:51;4.37;;;2.02;;
25667;SDS011;18003;-33.830;151.202;2022-09-20T01:51:43;7.58;;;1.95;;
25667;SDS011;18003;-33.830;151.202;2022-09-20T01:54:29;3.70;;;1.80;;
25667;SDS011;18003;-33.830;151.202;2022-09-20T01:57:12;6.37;;;2.17;;
25667;SDS011;18003;-33.830;151.202;2022-09-20T02:03:04;4.78;;;1.90;;
25667;SDS011;18003;-33.830;151.202;2022-09-20T02:11:14;3.40;;;2.00;;
25667;SDS011;18003;-33.830;151.202;2022-09-20T02:19:44;4.90;;;1.75;;
25667;SDS011;18003;-33.830;151.202;2022-09-20T02:34:02;4.28;;;2.02;;
25667;SDS011;18003;-33.830;151.202;2022-09-20T02:36:46;6.12;;;1.87;;
25667;SDS011;18003;-33.830;151.202;2022-09-20T02:42:04;9.65;;;2.40;;
25667;SDS011;18003;-33.830;151.202;2022-09-20T02:47:44;5.87;;;2.10;;
25667;SDS011;18003;-33.830;151.202;2022-09-20T02:55:33;5.70;;;2.17;;
25667;SDS011;18003;-33.830;151.202;2022-09-20T02:58:19;5.15;;;1.92;;
25667;SDS011;18003;-33.830;151.202;2022-09-20T03:01:08;4.40;;;1.55;;
25667;SDS011;18003;-33.830;151.202;2022-09-20T03:03:55;4.72;;;1.77;;
25667;SDS011;18003;-33.830;151.202;2022-09-20T03:06:48;5.33;;;2.30;;
25667;SDS011;18003;-33.830;151.202;2022-09-20T03:09:33;3.62;;;2.10;;
25667;SDS011;18003;-33.830;151.202;2022-09-20T03:17:57;2.70;;;2.05;;
25667;SDS011;18003;-33.830;151.202;2022-09-20T03:29:21;5.55;;;2.30;;
25667;SDS011;18003;-33.830;151.202;2022-09-20T03:32:11;3.70;;;2.02;;
25667;SDS011;18003;-33.830;151.202;2022-09-20T03:43:17;3.72;;;2.00;;
25667;SDS011;18003;-33.830;151.202;2022-09-20T04:02:54;3.95;;;2.00;;
25667;SDS011;18003;-33.830;151.202;2022-09-20T04:05:33;6.05;;;1.80;;
25667;SDS011;18003;-33.830;151.202;2022-09-20T04:08:27;4.35;;;2.30;;
25667;SDS011;18003;-33.830;151.202;2022-09-20T04:11:15;3.52;;;1.80;;
25667;SDS011;18003;-33.830;151.202;2022-09-20T04:19:24;4.80;;;1.92;;
25667;SDS011;18003;-33.830;151.202;2022-09-20T04:22:07;4.83;;;2.00;;
25667;SDS011;18003;-33.830;151.202;2022-09-20T04:24:41;3.22;;;1.80;;
25667;SDS011;18003;-33.830;151.202;2022-09-20T04:30:16;3.33;;;1.90;;
25667;SDS011;18003;-33.830;151.202;2022-09-20T04:35:54;5.12;;;2.00;;
25667;SDS011;18003;-33.830;151.202;2022-09-20T04:39:09;2.67;;;1.87;;
25667;SDS011;18003;-33.830;151.202;2022-09-20T04:41:49;3.72;;;1.98;;
25667;SDS011;18003;-33.830;151.202;2022-09-20T04:47:22;3.67;;;2.20;;
25667;SDS011;18003;-33.830;151.202;2022-09-20T04:52:45;7.75;;;2.30;;
25667;SDS011;18003;-33.830;151.202;2022-09-20T04:55:41;5.47;;;2.20;;
25667;SDS011;18003;-33.830;151.202;2022-09-20T05:23:48;3.65;;;1.92;;
25667;SDS011;18003;-33.830;151.202;2022-09-20T05:26:33;2.85;;;1.75;;
25667;SDS011;18003;-33.830;151.202;2022-09-20T05:29:03;5.10;;;1.85;;
25667;SDS011;18003;-33.830;151.202;2022-09-20T05:34:18;9.40;;;2.10;;
25667;SDS011;18003;-33.830;151.202;2022-09-20T05:39:53;6.42;;;2.20;;
25667;SDS011;18003;-33.830;151.202;2022-09-20T05:54:27;4.10;;;1.60;;
25667;SDS011;18003;-33.830;151.202;2022-09-20T06:11:12;13.32;;;2.45;;
25667;SDS011;18003;-33.830;151.202;2022-09-20T06:13:55;6.05;;;2.20;;
25667;SDS011;18003;-33.830;151.202;2022-09-20T06:16:27;7.87;;;2.80;;
25667;SDS011;18003;-33.830;151.202;2022-09-20T06:19:43;11.05;;;2.35;;
25667;SDS011;18003;-33.830;151.202;2022-09-20T06:21:50;7.10;;;2.30;;
25667;SDS011;18003;-33.830;151.202;2022-09-20T06:24:45;6.85;;;2.80;;
25667;SDS011;18003;-33.830;151.202;2022-09-20T06:27:17;6.40;;;2.72;;
25667;SDS011;18003;-33.830;151.202;2022-09-20T06:29:50;8.13;;;2.30;;
25667;SDS011;18003;-33.830;151.202;2022-09-20T06:32:22;8.65;;;2.50;;
25667;SDS011;18003;-33.830;151.202;2022-09-20T06:34:53;10.00;;;2.42;;
25667;SDS011;18003;-33.830;151.202;2022-09-20T06:37:30;6.78;;;2.50;;
25667;SDS011;18003;-33.830;151.202;2022-09-20T06:40:38;8.95;;;3.02;;
25667;SDS011;18003;-33.830;151.202;2022-09-20T06:43:27;7.67;;;2.12;;
25667;SDS011;18003;-33.830;151.202;2022-09-20T06:46:00;8.28;;;2.52;;
25667;SDS011;18003;-33.830;151.202;2022-09-20T06:48:30;7.67;;;2.55;;
25667;SDS011;18003;-33.830;151.202;2022-09-20T06:51:00;5.90;;;2.25;;
25667;SDS011;18003;-33.830;151.202;2022-09-20T06:53:30;7.00;;;2.00;;
25667;SDS011;18003;-33.830;151.202;2022-09-20T06:56:02;5.42;;;2.00;;
25667;SDS011;18003;-33.830;151.202;2022-09-20T06:58:33;4.77;;;2.10;;
25667;SDS011;18003;-33.830;151.202;2022-09-20T07:01:03;7.90;;;2.87;;
25667;SDS011;18003;-33.830;151.202;2022-09-20T07:03:33;7.28;;;2.58;;
25667;SDS011;18003;-33.830;151.202;2022-09-20T07:06:04;5.53;;;1.82;;
25667;SDS011;18003;-33.830;151.202;2022-09-20T07:08:34;7.42;;;2.20;;
25667;SDS011;18003;-33.830;151.202;2022-09-20T07:11:04;6.47;;;1.72;;
25667;SDS011;18003;-33.830;151.202;2022-09-20T07:13:35;7.75;;;2.27;;
25667;SDS011;18003;-33.830;151.202;2022-09-20T07:16:06;4.78;;;1.72;;
25667;SDS011;18003;-33.830;151.202;2022-09-20T07:18:38;6.50;;;2.02;;
25667;SDS011;18003;-33.830;151.202;2022-09-20T07:21:11;5.92;;;2.00;;
25667;SDS011;18003;-33.830;151.202;2022-09-20T07:23:42;4.33;;;2.00;;
25667;SDS011;18003;-33.830;151.202;2022-09-20T07:26:23;8.80;;;2.40;;
25667;SDS011;18003;-33.830;151.202;2022-09-20T07:28:55;5.17;;;2.10;;
25667;SDS011;18003;-33.830;151.202;2022-09-20T07:31:26;9.50;;;2.02;;
25667;SDS011;18003;-33.830;151.202;2022-09-20T07:33:56;8.58;;;2.30;;
25667;SDS011;18003;-33.830;151.202;2022-09-20T07:36:26;7.45;;;2.35;;
25667;SDS011;18003;-33.830;151.202;2022-09-20T07:38:57;7.08;;;1.90;;
25667;SDS011;18003;-33.830;151.202;2022-09-20T07:41:27;6.47;;;1.92;;
25667;SDS011;18003;-33.830;151.202;2022-09-20T07:43:57;6.00;;;1.80;;
25667;SDS011;18003;-33.830;151.202;2022-09-20T07:46:28;5.80;;;1.87;;
25667;SDS011;18003;-33.830;151.202;2022-09-20T07:48:59;6.65;;;1.67;;
25667;SDS011;18003;-33.830;151.202;2022-09-20T07:51:29;7.58;;;1.70;;
25667;SDS011;18003;-33.830;151.202;2022-09-20T07:54:00;6.35;;;1.75;;
25667;SDS011;18003;-33.830;151.202;2022-09-20T07:56:30;6.45;;;1.60;;
25667;SDS011;18003;-33.830;151.202;2022-09-20T07:59:01;9.38;;;2.10;;
25667;SDS011;18003;-33.830;151.202;2022-09-20T08:01:31;5.65;;;1.80;;
25667;SDS011;18003;-33.830;151.202;2022-09-20T08:04:04;5.22;;;1.65;;
25667;SDS011;18003;-33.830;151.202;2022-09-20T08:06:42;7.10;;;2.25;;
25667;SDS011;18003;-33.830;151.202;2022-09-20T08:09:09;6.78;;;1.80;;
25667;SDS011;18003;-33.830;151.202;2022-09-20T08:11:40;6.90;;;1.90;;
25667;SDS011;18003;-33.830;151.202;2022-09-20T08:14:14;6.92;;;1.70;;
25667;SDS011;18003;-33.830;151.202;2022-09-20T08:16:45;6.65;;;1.95;;
25667;SDS011;18003;-33.830;151.202;2022-09-20T08:19:17;6.53;;;1.77;;
25667;SDS011;18003;-33.830;151.202;2022-09-20T08:21:51;6.33;;;1.85;;
25667;SDS011;18003;-33.830;151.202;2022-09-20T08:24:21;4.85;;;1.75;;
25667;SDS011;18003;-33.830;151.202;2022-09-20T08:26:52;7.78;;;2.00;;
25667;SDS011;18003;-33.830;151.202;2022-09-20T08:29:22;6.30;;;1.72;;
25667;SDS011;18003;-33.830;151.202;2022-09-20T08:31:52;5.60;;;1.92;;
25667;SDS011;18003;-33.830;151.202;2022-09-20T08:34:23;6.17;;;1.70;;
25667;SDS011;18003;-33.830;151.202;2022-09-20T08:36:53;4.62;;;1.60;;
25667;SDS011;18003;-33.830;151.202;2022-09-20T08:39:26;8.43;;;1.70;;
25667;SDS011;18003;-33.830;151.202;2022-09-20T08:41:56;7.25;;;2.33;;
25667;SDS011;18003;-33.830;151.202;2022-09-20T08:44:39;5.80;;;1.47;;
25667;SDS011;18003;-33.830;151.202;2022-09-20T08:47:18;6.00;;;1.95;;
25667;SDS011;18003;-33.830;151.202;2022-09-20T08:49:58;7.17;;;1.70;;
25667;SDS011;18003;-33.830;151.202;2022-09-20T08:52:31;5.55;;;1.90;;
25667;SDS011;18003;-33.830;151.202;2022-09-20T08:55:11;8.10;;;2.00;;
25667;SDS011;18003;-33.830;151.202;2022-09-20T08:57:50;6.12;;;2.20;;
25667;SDS011;18003;-33.830;151.202;2022-09-20T09:00:25;5.87;;;1.98;;
25667;SDS011;18003;-33.830;151.202;2022-09-20T09:03:02;5.42;;;1.95;;
25667;SDS011;18003;-33.830;151.202;2022-09-20T09:05:35;7.83;;;1.95;;
25667;SDS011;18003;-33.830;151.202;2022-09-20T09:08:16;5.53;;;2.10;;
25667;SDS011;18003;-33.830;151.202;2022-09-20T09:10:46;8.55;;;1.95;;
25667;SDS011;18003;-33.830;151.202;2022-09-20T09:13:20;6.15;;;1.67;;
25667;SDS011;18003;-33.830;151.202;2022-09-20T09:16:08;5.95;;;2.22;;
25667;SDS011;18003;-33.830;151.202;2022-09-20T09:18:40;6.55;;;2.00;;
25667;SDS011;18003;-33.830;151.202;2022-09-20T09:21:44;6.67;;;2.47;;
25667;SDS011;18003;-33.830;151.202;2022-09-20T09:23:50;8.20;;;2.05;;
25667;SDS011;18003;-33.830;151.202;2022-09-20T09:26:22;7.15;;;1.95;;
25667;SDS011;18003;-33.830;151.202;2022-09-20T09:31:47;5.10;;;1.77;;
25667;SDS011;18003;-33.830;151.202;2022-09-20T09:34:27;8.90;;;1.80;;
25667;SDS011;18003;-33.830;151.202;2022-09-20T09:36:52;4.92;;;1.70;;
25667;SDS011;18003;-33.830;151.202;2022-09-20T09:39:28;5.37;;;1.70;;
25667;SDS011;18003;-33.830;151.202;2022-09-20T09:41:58;5.55;;;1.92;;
25667;SDS011;18003;-33.830;151.202;2022-09-20T09:44:29;4.58;;;1.82;;
25667;SDS011;18003;-33.830;151.202;2022-09-20T09:47:00;6.72;;;2.27;;
25667;SDS011;18003;-33.830;151.202;2022-09-20T09:49:31;7.97;;;1.87;;
25667;SDS011;18003;-33.830;151.202;2022-09-20T09:52:20;7.15;;;1.82;;
25667;SDS011;18003;-33.830;151.202;2022-09-20T10:00:17;5.65;;;1.77;;
25667;SDS011;18003;-33.830;151.202;2022-09-20T10:02:49;6.05;;;1.82;;
25667;SDS011;18003;-33.830;151.202;2022-09-20T10:11:09;6.17;;;1.72;;
25667;SDS011;18003;-33.830;151.202;2022-09-20T10:14:09;5.47;;;1.77;;
25667;SDS011;18003;-33.830;151.202;2022-09-20T10:16:58;5.92;;;1.60;;
25667;SDS011;18003;-33.830;151.202;2022-09-20T10:19:48;6.97;;;1.77;;
25667;SDS011;18003;-33.830;151.202;2022-09-20T10:28:11;5.45;;;1.47;;
25667;SDS011;18003;-33.830;151.202;2022-09-20T10:30:58;7.28;;;2.10;;
25667;SDS011;18003;-33.830;151.202;2022-09-20T10:33:32;5.85;;;1.77;;
25667;SDS011;18003;-33.830;151.202;2022-09-20T10:36:07;10.20;;;1.95;;
25667;SDS011;18003;-33.830;151.202;2022-09-20T10:41:33;8.05;;;1.90;;
25667;SDS011;18003;-33.830;151.202;2022-09-20T10:47:06;5.12;;;1.70;;
25667;SDS011;18003;-33.830;151.202;2022-09-20T10:57:58;7.92;;;2.08;;
25667;SDS011;18003;-33.830;151.202;2022-09-20T11:03:34;6.37;;;2.00;;
25667;SDS011;18003;-33.830;151.202;2022-09-20T11:06:07;9.18;;;1.82;;
25667;SDS011;18003;-33.830;151.202;2022-09-20T11:08:38;5.10;;;2.00;;
25667;SDS011;18003;-33.830;151.202;2022-09-20T11:11:18;6.25;;;1.90;;
25667;SDS011;18003;-33.830;151.202;2022-09-20T11:16:48;6.15;;;1.98;;
25667;SDS011;18003;-33.830;151.202;2022-09-20T11:22:27;7.37;;;2.15;;
25667;SDS011;18003;-33.830;151.202;2022-09-20T11:25:11;5.03;;;1.87;;
25667;SDS011;18003;-33.830;151.202;2022-09-20T11:30:19;6.03;;;2.02;;
25667;SDS011;18003;-33.830;151.202;2022-09-20T11:41:19;7.08;;;2.17;;
25667;SDS011;18003;-33.830;151.202;2022-09-20T11:43:31;6.90;;;1.70;;
25667;SDS011;18003;-33.830;151.202;2022-09-20T11:46:02;7.30;;;2.10;;
25667;SDS011;18003;-33.830;151.202;2022-09-20T11:48:41;7.72;;;2.12;;
25667;SDS011;18003;-33.830;151.202;2022-09-20T11:56:52;6.87;;;2.17;;
25667;SDS011;18003;-33.830;151.202;2022-09-20T11:59:28;5.95;;;1.70;;
25667;SDS011;18003;-33.830;151.202;2022-09-20T12:01:59;5.50;;;2.10;;
25667;SDS011;18003;-33.830;151.202;2022-09-20T12:04:32;5.58;;;2.02;;
25667;SDS011;18003;-33.830;151.202;2022-09-20T12:07:15;5.97;;;1.92;;
25667;SDS011;18003;-33.830;151.202;2022-09-20T12:09:56;5.85;;;1.70;;
25667;SDS011;18003;-33.830;151.202;2022-09-20T12:12:41;9.65;;;1.95;;
25667;SDS011;18003;-33.830;151.202;2022-09-20T12:21:04;13.13;;;2.12;;
25667;SDS011;18003;-33.830;151.202;2022-09-20T12:26:08;9.75;;;2.08;;
25667;SDS011;18003;-33.830;151.202;2022-09-20T12:28:40;6.47;;;1.52;;
25667;SDS011;18003;-33.830;151.202;2022-09-20T12:34:27;7.12;;;2.08;;
25667;SDS011;18003;-33.830;151.202;2022-09-20T12:36:39;6.62;;;1.90;;
25667;SDS011;18003;-33.830;151.202;2022-09-20T12:39:16;7.40;;;1.60;;
25667;SDS011;18003;-33.830;151.202;2022-09-20T12:44:33;7.03;;;2.25;;
25667;SDS011;18003;-33.830;151.202;2022-09-20T12:47:22;7.55;;;2.35;;
25667;SDS011;18003;-33.830;151.202;2022-09-20T12:49:54;8.63;;;2.20;;
25667;SDS011;18003;-33.830;151.202;2022-09-20T12:55:28;7.37;;;1.80;;
25667;SDS011;18003;-33.830;151.202;2022-09-20T13:00:44;9.05;;;2.58;;
25667;SDS011;18003;-33.830;151.202;2022-09-20T13:14:17;8.75;;;1.92;;
25667;SDS011;18003;-33.830;151.202;2022-09-20T13:19:26;5.80;;;1.85;;
25667;SDS011;18003;-33.830;151.202;2022-09-20T13:22:00;7.53;;;2.20;;
25667;SDS011;18003;-33.830;151.202;2022-09-20T13:24:38;6.47;;;1.80;;
25667;SDS011;18003;-33.830;151.202;2022-09-20T13:27:16;7.53;;;1.87;;
25667;SDS011;18003;-33.830;151.202;2022-09-20T13:29:47;7.22;;;1.90;;
25667;SDS011;18003;-33.830;151.202;2022-09-20T13:37:36;8.58;;;2.12;;
25667;SDS011;18003;-33.830;151.202;2022-09-20T13:40:42;8.83;;;2.15;;
25667;SDS011;18003;-33.830;151.202;2022-09-20T13:42:56;6.78;;;1.70;;
25667;SDS011;18003;-33.830;151.202;2022-09-20T13:45:27;8.43;;;2.02;;
25667;SDS011;18003;-33.830;151.202;2022-09-20T13:47:59;10.45;;;2.15;;
25667;SDS011;18003;-33.830;151.202;2022-09-20T13:50:35;6.65;;;2.10;;
25667;SDS011;18003;-33.830;151.202;2022-09-20T13:53:12;8.38;;;2.35;;
25667;SDS011;18003;-33.830;151.202;2022-09-20T13:55:41;6.83;;;2.10;;
25667;SDS011;18003;-33.830;151.202;2022-09-20T13:58:29;8.25;;;2.15;;
25667;SDS011;18003;-33.830;151.202;2022-09-20T14:00:59;5.75;;;1.92;;
25667;SDS011;18003;-33.830;151.202;2022-09-20T14:03:36;8.65;;;2.02;;
25667;SDS011;18003;-33.830;151.202;2022-09-20T14:06:08;6.00;;;2.20;;
25667;SDS011;18003;-33.830;151.202;2022-09-20T14:08:34;6.00;;;2.10;;
25667;SDS011;18003;-33.830;151.202;2022-09-20T14:11:14;8.55;;;1.95;;
25667;SDS011;18003;-33.830;151.202;2022-09-20T14:13:51;9.73;;;2.55;;
25667;SDS011;18003;-33.830;151.202;2022-09-20T14:16:28;10.13;;;2.30;;
25667;SDS011;18003;-33.830;151.202;2022-09-20T14:19:03;8.65;;;1.95;;
25667;SDS011;18003;-33.830;151.202;2022-09-20T14:21:37;9.70;;;2.40;;
25667;SDS011;18003;-33.830;151.202;2022-09-20T14:24:21;7.92;;;2.30;;
25667;SDS011;18003;-33.830;151.202;2022-09-20T14:26:42;5.95;;;2.05;;
25667;SDS011;18003;-33.830;151.202;2022-09-20T14:32:00;11.45;;;2.87;;
25667;SDS011;18003;-33.830;151.202;2022-09-20T14:37:22;8.38;;;2.22;;
25667;SDS011;18003;-33.830;151.202;2022-09-20T14:39:35;7.30;;;2.17;;
25667;SDS011;18003;-33.830;151.202;2022-09-20T14:44:36;6.75;;;2.47;;
25667;SDS011;18003;-33.830;151.202;2022-09-20T14:47:15;10.93;;;2.45;;
25667;SDS011;18003;-33.830;151.202;2022-09-20T14:49:46;9.45;;;2.20;;
25667;SDS011;18003;-33.830;151.202;2022-09-20T14:54:59;6.72;;;2.25;;
25667;SDS011;18003;-33.830;151.202;2022-09-20T14:57:30;12.03;;;2.20;;
25667;SDS011;18003;-33.830;151.202;2022-09-20T15:00:03;6.17;;;2.20;;
25667;SDS011;18003;-33.830;151.202;2022-09-20T15:02:41;6.78;;;1.90;;
25667;SDS011;18003;-33.830;151.202;2022-09-20T15:05:20;8.63;;;2.62;;
25667;SDS011;18003;-33.830;151.202;2022-09-20T15:07:51;8.05;;;2.20;;
25667;SDS011;18003;-33.830;151.202;2022-09-20T15:10:22;12.18;;;2.22;;
25667;SDS011;18003;-33.830;151.202;2022-09-20T15:12:52;7.85;;;2.25;;
25667;SDS011;18003;-33.830;151.202;2022-09-20T15:15:23;6.80;;;1.75;;
25667;SDS011;18003;-33.830;151.202;2022-09-20T15:17:53;7.53;;;2.15;;
25667;SDS011;18003;-33.830;151.202;2022-09-20T15:20:23;7.60;;;1.90;;
25667;SDS011;18003;-33.830;151.202;2022-09-20T15:22:54;9.73;;;2.20;;
25667;SDS011;18003;-33.830;151.202;2022-09-20T15:25:24;9.03;;;2.30;;
25667;SDS011;18003;-33.830;151.202;2022-09-20T15:27:55;8.08;;;2.00;;
25667;SDS011;18003;-33.830;151.202;2022-09-20T15:30:25;8.30;;;2.08;;
25667;SDS011;18003;-33.830;151.202;2022-09-20T15:32:55;6.67;;;2.30;;
25667;SDS011;18003;-33.830;151.202;2022-09-20T15:35:26;8.53;;;2.02;;
25667;SDS011;18003;-33.830;151.202;2022-09-20T15:37:56;8.03;;;1.62;;
25667;SDS011;18003;-33.830;151.202;2022-09-20T15:40:25;7.78;;;2.02;;
25667;SDS011;18003;-33.830;151.202;2022-09-20T15:42:56;8.25;;;2.05;;
25667;SDS011;18003;-33.830;151.202;2022-09-20T15:45:26;8.15;;;2.00;;
25667;SDS011;18003;-33.830;151.202;2022-09-20T15:47:57;9.33;;;2.27;;
25667;SDS011;18003;-33.830;151.202;2022-09-20T15:50:28;5.78;;;2.22;;
25667;SDS011;18003;-33.830;151.202;2022-09-20T15:52:58;8.28;;;2.20;;
25667;SDS011;18003;-33.830;151.202;2022-09-20T15:55:28;9.68;;;2.12;;
25667;SDS011;18003;-33.830;151.202;2022-09-20T15:57:58;8.25;;;2.20;;
25667;SDS011;18003;-33.830;151.202;2022-09-20T16:00:29;9.30;;;2.05;;
25667;SDS011;18003;-33.830;151.202;2022-09-20T16:02:59;6.53;;;2.12;;
25667;SDS011;18003;-33.830;151.202;2022-09-20T16:05:29;7.72;;;2.17;;
25667;SDS011;18003;-33.830;151.202;2022-09-20T16:07:59;11.93;;;2.17;;
25667;SDS011;18003;-33.830;151.202;2022-09-20T16:10:31;11.73;;;2.72;;
25667;SDS011;18003;-33.830;151.202;2022-09-20T16:13:02;10.08;;;2.30;;
25667;SDS011;18003;-33.830;151.202;2022-09-20T16:15:33;8.68;;;2.20;;
25667;SDS011;18003;-33.830;151.202;2022-09-20T16:18:04;8.03;;;2.20;;
25667;SDS011;18003;-33.830;151.202;2022-09-20T16:20:52;8.68;;;2.10;;
25667;SDS011;18003;-33.830;151.202;2022-09-20T16:23:22;8.23;;;2.58;;
25667;SDS011;18003;-33.830;151.202;2022-09-20T16:25:52;7.90;;;2.27;;
25667;SDS011;18003;-33.830;151.202;2022-09-20T16:28:22;8.70;;;2.30;;
25667;SDS011;18003;-33.830;151.202;2022-09-20T16:30:57;9.80;;;2.27;;
25667;SDS011;18003;-33.830;151.202;2022-09-20T16:33:27;9.25;;;2.50;;
25667;SDS011;18003;-33.830;151.202;2022-09-20T16:35:58;8.85;;;2.30;;
25667;SDS011;18003;-33.830;151.202;2022-09-20T16:38:28;9.13;;;2.30;;
25667;SDS011;18003;-33.830;151.202;2022-09-20T16:40:58;11.63;;;2.40;;
25667;SDS011;18003;-33.830;151.202;2022-09-20T16:43:29;8.50;;;2.15;;
25667;SDS011;18003;-33.830;151.202;2022-09-20T16:45:59;6.80;;;2.10;;
25667;SDS011;18003;-33.830;151.202;2022-09-20T16:48:32;11.65;;;2.27;;
25667;SDS011;18003;-33.830;151.202;2022-09-20T16:51:03;12.88;;;2.37;;
25667;SDS011;18003;-33.830;151.202;2022-09-20T16:53:33;9.53;;;2.30;;
25667;SDS011;18003;-33.830;151.202;2022-09-20T16:56:03;9.63;;;2.25;;
25667;SDS011;18003;-33.830;151.202;2022-09-20T16:58:33;8.48;;;2.25;;
25667;SDS011;18003;-33.830;151.202;2022-09-20T17:01:03;11.00;;;2.45;;
25667;SDS011;18003;-33.830;151.202;2022-09-20T17:03:34;10.35;;;2.15;;
25667;SDS011;18003;-33.830;151.202;2022-09-20T17:06:06;10.10;;;2.47;;
25667;SDS011;18003;-33.830;151.202;2022-09-20T17:08:37;9.18;;;2.10;;
25667;SDS011;18003;-33.830;151.202;2022-09-20T17:11:08;8.10;;;2.27;;
25667;SDS011;18003;-33.830;151.202;2022-09-20T17:13:40;9.25;;;2.10;;
25667;SDS011;18003;-33.830;151.202;2022-09-20T17:16:11;14.35;;;2.55;;
25667;SDS011;18003;-33.830;151.202;2022-09-20T17:18:42;8.93;;;2.00;;
25667;SDS011;18003;-33.830;151.202;2022-09-20T17:21:13;12.00;;;2.42;;
25667;SDS011;18003;-33.830;151.202;2022-09-20T17:26:15;9.65;;;2.00;;
25667;SDS011;18003;-33.830;151.202;2022-09-20T17:28:48;10.65;;;2.25;;
25667;SDS011;18003;-33.830;151.202;2022-09-20T17:31:21;9.60;;;2.40;;
25667;SDS011;18003;-33.830;151.202;2022-09-20T17:33:53;10.28;;;2.20;;
25667;SDS011;18003;-33.830;151.202;2022-09-20T17:36:26;10.15;;;2.25;;
25667;SDS011;18003;-33.830;151.202;2022-09-20T17:38:57;9.60;;;2.33;;
25667;SDS011;18003;-33.830;151.202;2022-09-20T17:41:28;11.60;;;2.65;;
25667;SDS011;18003;-33.830;151.202;2022-09-20T17:43:59;7.57;;;2.17;;
25667;SDS011;18003;-33.830;151.202;2022-09-20T17:46:30;11.97;;;2.27;;
25667;SDS011;18003;-33.830;151.202;2022-09-20T17:49:07;12.63;;;2.50;;
25667;SDS011;18003;-33.830;151.202;2022-09-20T17:51:37;8.98;;;2.02;;
25667;SDS011;18003;-33.830;151.202;2022-09-20T17:56:39;7.97;;;2.08;;
25667;SDS011;18003;-33.830;151.202;2022-09-20T17:59:09;11.63;;;2.45;;
25667;SDS011;18003;-33.830;151.202;2022-09-20T18:01:41;11.97;;;2.95;;
25667;SDS011;18003;-33.830;151.202;2022-09-20T18:04:12;12.50;;;2.30;;
25667;SDS011;18003;-33.830;151.202;2022-09-20T18:06:46;12.90;;;2.50;;
25667;SDS011;18003;-33.830;151.202;2022-09-20T18:09:18;11.40;;;2.50;;
25667;SDS011;18003;-33.830;151.202;2022-09-20T18:11:53;12.53;;;2.25;;
25667;SDS011;18003;-33.830;151.202;2022-09-20T18:14:24;16.40;;;2.85;;
25667;SDS011;18003;-33.830;151.202;2022-09-20T18:16:56;10.53;;;2.25;;
25667;SDS011;18003;-33.830;151.202;2022-09-20T18:19:28;10.72;;;2.25;;
25667;SDS011;18003;-33.830;151.202;2022-09-20T18:22:01;10.72;;;1.98;;
25667;SDS011;18003;-33.830;151.202;2022-09-20T18:24:32;11.90;;;2.62;;
25667;SDS011;18003;-33.830;151.202;2022-09-20T18:27:02;12.40;;;2.37;;
25667;SDS011;18003;-33.830;151.202;2022-09-20T18:29:32;8.00;;;1.82;;
25667;SDS011;18003;-33.830;151.202;2022-09-20T18:32:03;8.38;;;2.00;;
25667;SDS011;18003;-33.830;151.202;2022-09-20T18:34:34;11.83;;;2.17;;
25667;SDS011;18003;-33.830;151.202;2022-09-20T18:37:04;11.18;;;2.00;;
25667;SDS011;18003;-33.830;151.202;2022-09-20T18:39:34;11.50;;;2.27;;
25667;SDS011;18003;-33.830;151.202;2022-09-20T18:42:05;13.88;;;2.35;;
25667;SDS011;18003;-33.830;151.202;2022-09-20T18:44:35;10.80;;;2.05;;
25667;SDS011;18003;-33.830;151.202;2022-09-20T18:47:05;13.70;;;2.27;;
25667;SDS011;18003;-33.830;151.202;2022-09-20T18:49:35;10.90;;;2.33;;
25667;SDS011;18003;-33.830;151.202;2022-09-20T18:52:05;10.75;;;2.30;;
25667;SDS011;18003;-33.830;151.202;2022-09-20T18:54:36;10.35;;;2.27;;
25667;SDS011;18003;-33.830;151.202;2022-09-20T18:57:07;13.10;;;2.33;;
25667;SDS011;18003;-33.830;151.202;2022-09-20T18:59:37;10.65;;;2.20;;
25667;SDS011;18003;-33.830;151.202;2022-09-20T19:02:16;9.88;;;2.30;;
25667;SDS011;18003;-33.830;151.202;2022-09-20T19:04:52;12.90;;;2.20;;
25667;SDS011;18003;-33.830;151.202;2022-09-20T19:07:23;13.13;;;2.75;;
25667;SDS011;18003;-33.830;151.202;2022-09-20T19:12:54;12.58;;;2.55;;
25667;SDS011;18003;-33.830;151.202;2022-09-20T19:26:47;10.75;;;2.35;;
25667;SDS011;18003;-33.830;151.202;2022-09-20T19:29:23;10.93;;;2.10;;
25667;SDS011;18003;-33.830;151.202;2022-09-20T19:31:51;12.23;;;2.42;;
25667;SDS011;18003;-33.830;151.202;2022-09-20T19:34:28;11.30;;;2.35;;
25667;SDS011;18003;-33.830;151.202;2022-09-20T19:37:03;11.33;;;2.62;;
25667;SDS011;18003;-33.830;151.202;2022-09-20T19:39:39;12.45;;;2.58;;
25667;SDS011;18003;-33.830;151.202;2022-09-20T19:45:25;13.28;;;2.55;;